RPA4396 KCLE-KJFK
Flight info
| Callsign | RPA4396 |
|---|---|
| Flight time | N/A |
| Altitude | 25000 |
| Route | PFLYD1 JASEE JHW Q476 WLKES PUCKY1 |
| Aircraft | E170/M-SDE3GILORVW/S |
Departure
| Time | 2026-04-29 21:00 |
|---|---|
| Airport | Cleveland Hopkins International Airport (KCLE) |
Arrival
| Time | N/A |
|---|---|
| Airport | John F. Kennedy International Airport (KJFK) |
| Time | Latitude | Longitude | Altitude | Speed | Heading |
|---|---|---|---|---|---|
| 2026-04-29 20:25 | 41.40965 | -81.83985 | 793 ft | 0 kts | 134° |
| 2026-04-29 20:48 | 41.40970 | -81.83993 | 793 ft | 3 kts | 134° |
| 2026-04-29 20:49 | 41.40984 | -81.84012 | 793 ft | 3 kts | 134° |
| 2026-04-29 20:49 | 41.40998 | -81.84031 | 793 ft | 3 kts | 133° |
| 2026-04-29 20:49 | 41.41010 | -81.84052 | 793 ft | 3 kts | 123° |
| 2026-04-29 20:49 | 41.41020 | -81.84075 | 793 ft | 3 kts | 111° |
| 2026-04-29 20:50 | 41.41027 | -81.84101 | 793 ft | 3 kts | 110° |
| 2026-04-29 20:50 | 41.41034 | -81.84118 | 793 ft | 3 kts | 173° |
| 2026-04-29 20:50 | 41.41036 | -81.84117 | 793 ft | 1 kts | 219° |
| 2026-04-29 20:50 | 41.41038 | -81.84115 | 793 ft | 0 kts | 219° |
| 2026-04-29 20:53 | 41.41026 | -81.84130 | 793 ft | 5 kts | 224° |
| 2026-04-29 20:53 | 41.40988 | -81.84183 | 793 ft | 11 kts | 233° |
| 2026-04-29 20:54 | 41.41037 | -81.84344 | 793 ft | 7 kts | 316° |
| 2026-04-29 20:54 | 41.41062 | -81.84385 | 793 ft | 5 kts | 303° |
| 2026-04-29 20:54 | 41.41089 | -81.84446 | 793 ft | 10 kts | 307° |
| 2026-04-29 20:55 | 41.41134 | -81.84504 | 793 ft | 8 kts | 319° |
| 2026-04-29 20:55 | 41.41158 | -81.84558 | 793 ft | 6 kts | 259° |
| 2026-04-29 20:55 | 41.41133 | -81.84615 | 794 ft | 11 kts | 237° |
| 2026-04-29 20:55 | 41.41068 | -81.84704 | 793 ft | 17 kts | 229° |
| 2026-04-29 20:56 | 41.40992 | -81.84826 | 793 ft | 17 kts | 233° |
| 2026-04-29 20:56 | 41.40919 | -81.84947 | 793 ft | 17 kts | 229° |
| 2026-04-29 20:56 | 41.40840 | -81.85080 | 793 ft | 19 kts | 231° |
| 2026-04-29 20:56 | 41.40745 | -81.85226 | 793 ft | 23 kts | 227° |
| 2026-04-29 20:57 | 41.40636 | -81.85395 | 793 ft | 25 kts | 230° |
| 2026-04-29 20:57 | 41.40526 | -81.85568 | 793 ft | 24 kts | 230° |
| 2026-04-29 20:57 | 41.40418 | -81.85740 | 793 ft | 24 kts | 230° |
| 2026-04-29 20:57 | 41.40305 | -81.85906 | 793 ft | 24 kts | 215° |
| 2026-04-29 20:58 | 41.40150 | -81.85981 | 793 ft | 24 kts | 216° |
| 2026-04-29 20:58 | 41.40039 | -81.86140 | 793 ft | 23 kts | 231° |
| 2026-04-29 20:58 | 41.39985 | -81.86274 | 793 ft | 8 kts | 294° |
| 2026-04-29 20:58 | 41.40026 | -81.86332 | 793 ft | 10 kts | 321° |
| 2026-04-29 20:59 | 41.40087 | -81.86398 | 791 ft | 13 kts | 321° |
| 2026-04-29 20:59 | 41.40159 | -81.86375 | 790 ft | 12 kts | 44° |
| 2026-04-29 20:59 | 41.40274 | -81.86194 | 790 ft | 51 kts | 51° |
| 2026-04-29 20:59 | 41.40627 | -81.85636 | 792 ft | 105 kts | 50° |
| 2026-04-29 21:00 | 41.41206 | -81.84729 | 795 ft | 149 kts | 50° |
| 2026-04-29 21:00 | 41.41860 | -81.83625 | 1248 ft | 149 kts | 51° |
| 2026-04-29 21:00 | 41.42447 | -81.82443 | 1707 ft | 158 kts | 57° |
| 2026-04-29 21:00 | 41.42970 | -81.81064 | 2096 ft | 183 kts | 62° |
| 2026-04-29 21:01 | 41.43543 | -81.79405 | 2696 ft | 200 kts | 63° |
| 2026-04-29 21:01 | 41.44175 | -81.77623 | 3324 ft | 224 kts | 62° |
| 2026-04-29 21:01 | 41.44873 | -81.75708 | 4104 ft | 238 kts | 64° |
| 2026-04-29 21:01 | 41.45534 | -81.73675 | 4954 ft | 239 kts | 66° |